sensor_id;sensor_type;location;lat;lon;timestamp;P1;durP1;ratioP1;P2;durP2;ratioP2
30380;SDS011;17169;50.966;11.038;2022-11-02T00:02:52;3.92;;;1.35;;
30380;SDS011;17169;50.966;11.038;2022-11-02T00:05:54;4.68;;;1.40;;
30380;SDS011;17169;50.966;11.038;2022-11-02T00:08:57;6.05;;;1.80;;
30380;SDS011;17169;50.966;11.038;2022-11-02T00:11:59;9.13;;;1.52;;
30380;SDS011;17169;50.966;11.038;2022-11-02T00:15:03;6.72;;;1.40;;
30380;SDS011;17169;50.966;11.038;2022-11-02T00:18:08;11.07;;;1.63;;
30380;SDS011;17169;50.966;11.038;2022-11-02T00:21:13;7.57;;;1.75;;
30380;SDS011;17169;50.966;11.038;2022-11-02T00:24:17;9.95;;;2.47;;
30380;SDS011;17169;50.966;11.038;2022-11-02T00:27:19;7.43;;;1.83;;
30380;SDS011;17169;50.966;11.038;2022-11-02T00:30:24;7.30;;;1.60;;
30380;SDS011;17169;50.966;11.038;2022-11-02T00:33:26;9.60;;;1.77;;
30380;SDS011;17169;50.966;11.038;2022-11-02T00:36:29;7.70;;;1.88;;
30380;SDS011;17169;50.966;11.038;2022-11-02T00:39:31;9.43;;;1.75;;
30380;SDS011;17169;50.966;11.038;2022-11-02T00:42:34;7.05;;;2.38;;
30380;SDS011;17169;50.966;11.038;2022-11-02T00:45:37;8.00;;;1.40;;
30380;SDS011;17169;50.966;11.038;2022-11-02T00:48:40;6.40;;;1.55;;
30380;SDS011;17169;50.966;11.038;2022-11-02T00:51:42;6.45;;;1.55;;
30380;SDS011;17169;50.966;11.038;2022-11-02T00:54:45;7.15;;;1.60;;
30380;SDS011;17169;50.966;11.038;2022-11-02T00:57:48;10.48;;;1.80;;
30380;SDS011;17169;50.966;11.038;2022-11-02T01:00:51;10.77;;;2.88;;
30380;SDS011;17169;50.966;11.038;2022-11-02T01:03:56;6.45;;;1.40;;
30380;SDS011;17169;50.966;11.038;2022-11-02T01:06:58;8.70;;;1.80;;
30380;SDS011;17169;50.966;11.038;2022-11-02T01:10:00;7.55;;;1.70;;
30380;SDS011;17169;50.966;11.038;2022-11-02T01:13:03;10.80;;;2.20;;
30380;SDS011;17169;50.966;11.038;2022-11-02T01:16:07;11.02;;;1.98;;
30380;SDS011;17169;50.966;11.038;2022-11-02T01:19:10;4.47;;;1.58;;
30380;SDS011;17169;50.966;11.038;2022-11-02T01:22:13;6.93;;;1.85;;
30380;SDS011;17169;50.966;11.038;2022-11-02T01:25:15;6.65;;;1.65;;
30380;SDS011;17169;50.966;11.038;2022-11-02T01:28:18;8.98;;;1.88;;
30380;SDS011;17169;50.966;11.038;2022-11-02T01:31:22;6.82;;;1.60;;
30380;SDS011;17169;50.966;11.038;2022-11-02T01:34:24;7.88;;;1.80;;
30380;SDS011;17169;50.966;11.038;2022-11-02T01:37:27;11.75;;;1.73;;
30380;SDS011;17169;50.966;11.038;2022-11-02T01:40:33;12.65;;;1.85;;
30380;SDS011;17169;50.966;11.038;2022-11-02T01:43:36;10.93;;;1.58;;
30380;SDS011;17169;50.966;11.038;2022-11-02T01:46:40;8.05;;;1.70;;
30380;SDS011;17169;50.966;11.038;2022-11-02T01:49:46;6.47;;;1.40;;
30380;SDS011;17169;50.966;11.038;2022-11-02T01:52:52;10.10;;;1.73;;
30380;SDS011;17169;50.966;11.038;2022-11-02T01:55:55;4.32;;;1.40;;
30380;SDS011;17169;50.966;11.038;2022-11-02T01:58:58;14.18;;;2.40;;
30380;SDS011;17169;50.966;11.038;2022-11-02T02:02:10;11.68;;;1.88;;
30380;SDS011;17169;50.966;11.038;2022-11-02T02:05:17;12.50;;;2.00;;
30380;SDS011;17169;50.966;11.038;2022-11-02T02:08:22;10.32;;;2.03;;
30380;SDS011;17169;50.966;11.038;2022-11-02T02:11:27;8.13;;;1.75;;
30380;SDS011;17169;50.966;11.038;2022-11-02T02:14:30;8.45;;;1.52;;
30380;SDS011;17169;50.966;11.038;2022-11-02T02:17:36;10.52;;;1.80;;
30380;SDS011;17169;50.966;11.038;2022-11-02T02:20:51;11.20;;;2.33;;
30380;SDS011;17169;50.966;11.038;2022-11-02T02:24:09;11.98;;;1.55;;
30380;SDS011;17169;50.966;11.038;2022-11-02T02:27:22;6.80;;;1.52;;
30380;SDS011;17169;50.966;11.038;2022-11-02T02:30:33;11.25;;;1.88;;
30380;SDS011;17169;50.966;11.038;2022-11-02T02:33:42;12.57;;;2.55;;
30380;SDS011;17169;50.966;11.038;2022-11-02T02:36:50;13.00;;;1.90;;
30380;SDS011;17169;50.966;11.038;2022-11-02T02:39:59;4.93;;;1.42;;
30380;SDS011;17169;50.966;11.038;2022-11-02T02:43:06;11.20;;;1.95;;
30380;SDS011;17169;50.966;11.038;2022-11-02T02:46:14;8.88;;;1.85;;
30380;SDS011;17169;50.966;11.038;2022-11-02T02:49:22;8.70;;;1.50;;
30380;SDS011;17169;50.966;11.038;2022-11-02T02:52:29;9.65;;;2.17;;
30380;SDS011;17169;50.966;11.038;2022-11-02T02:55:37;9.07;;;2.28;;
30380;SDS011;17169;50.966;11.038;2022-11-02T02:58:45;7.07;;;1.90;;
30380;SDS011;17169;50.966;11.038;2022-11-02T03:01:51;9.57;;;1.67;;
30380;SDS011;17169;50.966;11.038;2022-11-02T03:04:56;6.18;;;1.80;;
30380;SDS011;17169;50.966;11.038;2022-11-02T03:07:59;7.88;;;1.55;;
30380;SDS011;17169;50.966;11.038;2022-11-02T03:11:09;6.43;;;1.50;;
30380;SDS011;17169;50.966;11.038;2022-11-02T03:14:16;7.88;;;1.55;;
30380;SDS011;17169;50.966;11.038;2022-11-02T03:17:28;6.85;;;1.52;;
30380;SDS011;17169;50.966;11.038;2022-11-02T03:20:41;8.38;;;1.75;;
30380;SDS011;17169;50.966;11.038;2022-11-02T03:23:54;9.70;;;1.85;;
30380;SDS011;17169;50.966;11.038;2022-11-02T03:27:06;9.68;;;2.00;;
30380;SDS011;17169;50.966;11.038;2022-11-02T03:30:16;9.38;;;1.60;;
30380;SDS011;17169;50.966;11.038;2022-11-02T03:33:23;11.02;;;1.73;;
30380;SDS011;17169;50.966;11.038;2022-11-02T03:36:31;2.88;;;1.25;;
30380;SDS011;17169;50.966;11.038;2022-11-02T03:39:38;11.65;;;1.55;;
30380;SDS011;17169;50.966;11.038;2022-11-02T03:42:44;6.35;;;1.67;;
30380;SDS011;17169;50.966;11.038;2022-11-02T03:45:48;9.55;;;1.67;;
30380;SDS011;17169;50.966;11.038;2022-11-02T03:48:55;8.10;;;1.52;;
30380;SDS011;17169;50.966;11.038;2022-11-02T03:51:58;6.78;;;1.40;;
30380;SDS011;17169;50.966;11.038;2022-11-02T03:55:06;5.07;;;1.75;;
30380;SDS011;17169;50.966;11.038;2022-11-02T03:58:11;12.15;;;1.83;;
30380;SDS011;17169;50.966;11.038;2022-11-02T04:01:13;11.32;;;2.35;;
30380;SDS011;17169;50.966;11.038;2022-11-02T04:04:19;7.93;;;2.30;;
30380;SDS011;17169;50.966;11.038;2022-11-02T04:07:23;6.47;;;1.65;;
30380;SDS011;17169;50.966;11.038;2022-11-02T04:10:52;10.32;;;2.20;;
30380;SDS011;17169;50.966;11.038;2022-11-02T04:14:11;11.02;;;1.40;;
30380;SDS011;17169;50.966;11.038;2022-11-02T04:17:30;10.15;;;1.65;;
30380;SDS011;17169;50.966;11.038;2022-11-02T04:20:52;5.45;;;1.67;;
30380;SDS011;17169;50.966;11.038;2022-11-02T04:23:54;9.35;;;1.98;;
30380;SDS011;17169;50.966;11.038;2022-11-02T04:27:14;7.07;;;1.90;;
30380;SDS011;17169;50.966;11.038;2022-11-02T04:30:17;9.80;;;1.60;;
30380;SDS011;17169;50.966;11.038;2022-11-02T04:33:21;5.07;;;1.67;;
30380;SDS011;17169;50.966;11.038;2022-11-02T04:36:36;10.00;;;1.90;;
30380;SDS011;17169;50.966;11.038;2022-11-02T04:39:39;10.30;;;1.63;;
30380;SDS011;17169;50.966;11.038;2022-11-02T04:42:42;7.35;;;1.58;;
30380;SDS011;17169;50.966;11.038;2022-11-02T04:45:47;8.38;;;2.20;;
30380;SDS011;17169;50.966;11.038;2022-11-02T04:48:49;9.40;;;2.42;;
30380;SDS011;17169;50.966;11.038;2022-11-02T04:51:53;7.88;;;2.00;;
30380;SDS011;17169;50.966;11.038;2022-11-02T04:54:55;10.00;;;2.20;;
30380;SDS011;17169;50.966;11.038;2022-11-02T04:57:58;6.38;;;2.00;;
30380;SDS011;17169;50.966;11.038;2022-11-02T05:01:03;10.25;;;3.25;;
30380;SDS011;17169;50.966;11.038;2022-11-02T05:04:08;8.60;;;1.65;;
30380;SDS011;17169;50.966;11.038;2022-11-02T05:07:12;11.40;;;2.72;;
30380;SDS011;17169;50.966;11.038;2022-11-02T05:10:15;10.02;;;2.97;;
30380;SDS011;17169;50.966;11.038;2022-11-02T05:13:17;10.50;;;2.50;;
30380;SDS011;17169;50.966;11.038;2022-11-02T05:16:19;11.15;;;2.20;;
30380;SDS011;17169;50.966;11.038;2022-11-02T05:19:22;17.90;;;2.50;;
30380;SDS011;17169;50.966;11.038;2022-11-02T05:22:26;7.28;;;2.13;;
30380;SDS011;17169;50.966;11.038;2022-11-02T05:25:28;10.98;;;2.78;;
30380;SDS011;17169;50.966;11.038;2022-11-02T05:28:30;7.43;;;1.90;;
30380;SDS011;17169;50.966;11.038;2022-11-02T05:31:34;10.25;;;1.95;;
30380;SDS011;17169;50.966;11.038;2022-11-02T05:34:36;12.00;;;2.10;;
30380;SDS011;17169;50.966;11.038;2022-11-02T05:37:40;12.13;;;1.75;;
30380;SDS011;17169;50.966;11.038;2022-11-02T05:40:42;6.80;;;1.70;;
30380;SDS011;17169;50.966;11.038;2022-11-02T05:43:44;11.30;;;2.03;;
30380;SDS011;17169;50.966;11.038;2022-11-02T05:46:47;6.75;;;1.98;;
30380;SDS011;17169;50.966;11.038;2022-11-02T05:49:49;8.13;;;2.00;;
30380;SDS011;17169;50.966;11.038;2022-11-02T05:52:53;9.18;;;2.05;;
30380;SDS011;17169;50.966;11.038;2022-11-02T05:55:56;18.80;;;3.35;;
30380;SDS011;17169;50.966;11.038;2022-11-02T05:58:59;9.18;;;2.20;;
30380;SDS011;17169;50.966;11.038;2022-11-02T06:02:01;12.85;;;2.42;;
30380;SDS011;17169;50.966;11.038;2022-11-02T06:05:04;19.63;;;2.30;;
30380;SDS011;17169;50.966;11.038;2022-11-02T06:08:08;10.63;;;2.70;;
30380;SDS011;17169;50.966;11.038;2022-11-02T06:11:11;8.23;;;1.83;;
30380;SDS011;17169;50.966;11.038;2022-11-02T06:14:14;9.60;;;1.92;;
30380;SDS011;17169;50.966;11.038;2022-11-02T06:17:16;7.10;;;1.77;;
30380;SDS011;17169;50.966;11.038;2022-11-02T06:20:19;9.98;;;2.08;;
30380;SDS011;17169;50.966;11.038;2022-11-02T06:23:23;8.95;;;2.05;;
30380;SDS011;17169;50.966;11.038;2022-11-02T06:26:25;7.93;;;1.98;;
30380;SDS011;17169;50.966;11.038;2022-11-02T06:29:28;10.15;;;2.22;;
30380;SDS011;17169;50.966;11.038;2022-11-02T06:32:30;11.00;;;2.03;;
30380;SDS011;17169;50.966;11.038;2022-11-02T06:35:32;10.05;;;1.90;;
30380;SDS011;17169;50.966;11.038;2022-11-02T06:38:36;12.02;;;2.22;;
30380;SDS011;17169;50.966;11.038;2022-11-02T06:41:39;5.85;;;1.92;;
30380;SDS011;17169;50.966;11.038;2022-11-02T06:44:41;13.20;;;2.08;;
30380;SDS011;17169;50.966;11.038;2022-11-02T06:47:44;8.50;;;2.05;;
30380;SDS011;17169;50.966;11.038;2022-11-02T06:50:48;10.32;;;2.42;;
30380;SDS011;17169;50.966;11.038;2022-11-02T06:53:52;9.93;;;2.35;;
30380;SDS011;17169;50.966;11.038;2022-11-02T06:56:54;8.55;;;1.77;;
30380;SDS011;17169;50.966;11.038;2022-11-02T06:59:57;9.13;;;2.22;;
30380;SDS011;17169;50.966;11.038;2022-11-02T07:03:04;6.65;;;2.17;;
30380;SDS011;17169;50.966;11.038;2022-11-02T07:06:08;15.65;;;2.17;;
30380;SDS011;17169;50.966;11.038;2022-11-02T07:09:11;10.77;;;2.13;;
30380;SDS011;17169;50.966;11.038;2022-11-02T07:12:14;14.57;;;1.98;;
30380;SDS011;17169;50.966;11.038;2022-11-02T07:15:16;11.82;;;2.15;;
30380;SDS011;17169;50.966;11.038;2022-11-02T07:18:19;10.55;;;2.00;;
30380;SDS011;17169;50.966;11.038;2022-11-02T07:21:21;11.57;;;2.28;;
30380;SDS011;17169;50.966;11.038;2022-11-02T07:24:25;14.45;;;2.58;;
30380;SDS011;17169;50.966;11.038;2022-11-02T07:27:27;8.82;;;2.05;;
30380;SDS011;17169;50.966;11.038;2022-11-02T07:30:30;13.00;;;2.58;;
30380;SDS011;17169;50.966;11.038;2022-11-02T07:33:34;8.18;;;2.10;;
30380;SDS011;17169;50.966;11.038;2022-11-02T07:36:36;10.40;;;2.22;;
30380;SDS011;17169;50.966;11.038;2022-11-02T07:39:40;9.07;;;1.95;;
30380;SDS011;17169;50.966;11.038;2022-11-02T07:42:43;10.40;;;2.13;;
30380;SDS011;17169;50.966;11.038;2022-11-02T07:45:46;12.43;;;2.22;;
30380;SDS011;17169;50.966;11.038;2022-11-02T07:48:48;6.10;;;1.77;;
30380;SDS011;17169;50.966;11.038;2022-11-02T07:51:51;9.10;;;2.10;;
30380;SDS011;17169;50.966;11.038;2022-11-02T07:54:54;11.82;;;2.70;;
30380;SDS011;17169;50.966;11.038;2022-11-02T07:57:57;9.35;;;2.03;;
30380;SDS011;17169;50.966;11.038;2022-11-02T08:01:01;14.27;;;2.15;;
30380;SDS011;17169;50.966;11.038;2022-11-02T08:04:04;9.50;;;2.20;;
30380;SDS011;17169;50.966;11.038;2022-11-02T08:07:06;12.88;;;2.13;;
30380;SDS011;17169;50.966;11.038;2022-11-02T08:10:10;9.75;;;1.98;;
30380;SDS011;17169;50.966;11.038;2022-11-02T08:13:12;15.32;;;2.22;;
30380;SDS011;17169;50.966;11.038;2022-11-02T08:16:16;14.73;;;2.08;;
30380;SDS011;17169;50.966;11.038;2022-11-02T08:19:19;7.07;;;1.88;;
30380;SDS011;17169;50.966;11.038;2022-11-02T08:22:21;13.65;;;1.98;;
30380;SDS011;17169;50.966;11.038;2022-11-02T08:25:25;11.63;;;2.28;;
30380;SDS011;17169;50.966;11.038;2022-11-02T08:28:28;9.35;;;2.28;;
30380;SDS011;17169;50.966;11.038;2022-11-02T08:31:35;9.57;;;1.90;;
30380;SDS011;17169;50.966;11.038;2022-11-02T08:34:37;7.43;;;1.88;;
30380;SDS011;17169;50.966;11.038;2022-11-02T08:37:39;11.18;;;1.63;;
30380;SDS011;17169;50.966;11.038;2022-11-02T08:40:43;8.00;;;2.13;;
30380;SDS011;17169;50.966;11.038;2022-11-02T08:43:45;10.98;;;2.55;;
30380;SDS011;17169;50.966;11.038;2022-11-02T08:46:48;12.80;;;2.17;;
30380;SDS011;17169;50.966;11.038;2022-11-02T08:49:50;6.60;;;1.73;;
30380;SDS011;17169;50.966;11.038;2022-11-02T08:52:52;12.07;;;2.20;;
30380;SDS011;17169;50.966;11.038;2022-11-02T08:55:57;10.38;;;1.70;;
30380;SDS011;17169;50.966;11.038;2022-11-02T08:58:59;18.42;;;2.17;;
30380;SDS011;17169;50.966;11.038;2022-11-02T09:02:01;10.48;;;2.20;;
30380;SDS011;17169;50.966;11.038;2022-11-02T09:05:04;8.55;;;1.75;;
30380;SDS011;17169;50.966;11.038;2022-11-02T09:08:07;11.60;;;2.10;;
30380;SDS011;17169;50.966;11.038;2022-11-02T09:11:13;11.90;;;2.33;;
30380;SDS011;17169;50.966;11.038;2022-11-02T09:14:26;8.07;;;2.80;;
30380;SDS011;17169;50.966;11.038;2022-11-02T09:17:28;6.38;;;1.60;;
30380;SDS011;17169;50.966;11.038;2022-11-02T09:20:31;11.15;;;2.65;;
30380;SDS011;17169;50.966;11.038;2022-11-02T09:23:34;9.80;;;2.28;;
30380;SDS011;17169;50.966;11.038;2022-11-02T09:26:38;11.48;;;2.80;;
30380;SDS011;17169;50.966;11.038;2022-11-02T09:29:40;10.90;;;1.90;;
30380;SDS011;17169;50.966;11.038;2022-11-02T09:32:43;10.60;;;1.95;;
30380;SDS011;17169;50.966;11.038;2022-11-02T09:35:45;9.15;;;1.58;;
30380;SDS011;17169;50.966;11.038;2022-11-02T09:38:49;10.15;;;2.67;;
30380;SDS011;17169;50.966;11.038;2022-11-02T09:41:56;9.75;;;2.30;;
30380;SDS011;17169;50.966;11.038;2022-11-02T09:45:05;11.18;;;1.75;;
30380;SDS011;17169;50.966;11.038;2022-11-02T09:48:13;9.38;;;1.83;;
30380;SDS011;17169;50.966;11.038;2022-11-02T09:51:19;14.13;;;1.88;;
30380;SDS011;17169;50.966;11.038;2022-11-02T09:54:24;10.18;;;1.83;;
30380;SDS011;17169;50.966;11.038;2022-11-02T09:57:32;11.88;;;1.88;;
30380;SDS011;17169;50.966;11.038;2022-11-02T10:00:35;11.35;;;1.63;;
30380;SDS011;17169;50.966;11.038;2022-11-02T10:03:43;15.75;;;2.58;;
30380;SDS011;17169;50.966;11.038;2022-11-02T10:06:55;10.63;;;1.70;;
30380;SDS011;17169;50.966;11.038;2022-11-02T10:10:07;8.68;;;1.52;;
30380;SDS011;17169;50.966;11.038;2022-11-02T10:13:18;6.18;;;1.48;;
30380;SDS011;17169;50.966;11.038;2022-11-02T10:16:28;6.20;;;1.48;;
30380;SDS011;17169;50.966;11.038;2022-11-02T10:19:34;8.60;;;1.85;;
30380;SDS011;17169;50.966;11.038;2022-11-02T10:22:40;6.18;;;1.60;;
30380;SDS011;17169;50.966;11.038;2022-11-02T10:25:44;12.02;;;2.15;;
30380;SDS011;17169;50.966;11.038;2022-11-02T10:28:54;11.40;;;1.60;;
30380;SDS011;17169;50.966;11.038;2022-11-02T10:31:59;19.23;;;1.90;;
30380;SDS011;17169;50.966;11.038;2022-11-02T10:35:03;10.45;;;1.58;;
30380;SDS011;17169;50.966;11.038;2022-11-02T10:38:14;9.77;;;2.20;;
30380;SDS011;17169;50.966;11.038;2022-11-02T10:41:27;10.50;;;2.35;;
30380;SDS011;17169;50.966;11.038;2022-11-02T10:44:50;9.73;;;2.00;;
30380;SDS011;17169;50.966;11.038;2022-11-02T10:48:01;8.80;;;2.30;;
30380;SDS011;17169;50.966;11.038;2022-11-02T10:51:11;16.67;;;1.92;;
30380;SDS011;17169;50.966;11.038;2022-11-02T10:54:14;3.42;;;1.42;;
30380;SDS011;17169;50.966;11.038;2022-11-02T10:57:17;5.80;;;1.40;;
30380;SDS011;17169;50.966;11.038;2022-11-02T11:00:28;7.85;;;1.70;;
30380;SDS011;17169;50.966;11.038;2022-11-02T11:03:33;14.20;;;1.92;;
30380;SDS011;17169;50.966;11.038;2022-11-02T11:06:52;7.85;;;1.30;;
30380;SDS011;17169;50.966;11.038;2022-11-02T11:09:56;6.22;;;1.50;;
30380;SDS011;17169;50.966;11.038;2022-11-02T11:12:59;9.43;;;1.42;;
30380;SDS011;17169;50.966;11.038;2022-11-02T11:16:03;12.07;;;1.80;;
30380;SDS011;17169;50.966;11.038;2022-11-02T11:19:14;6.22;;;1.52;;
30380;SDS011;17169;50.966;11.038;2022-11-02T11:22:22;8.10;;;1.60;;
30380;SDS011;17169;50.966;11.038;2022-11-02T11:25:26;8.55;;;2.38;;
30380;SDS011;17169;50.966;11.038;2022-11-02T11:28:30;8.60;;;1.85;;
30380;SDS011;17169;50.966;11.038;2022-11-02T11:31:35;10.63;;;2.03;;
30380;SDS011;17169;50.966;11.038;2022-11-02T11:34:37;9.25;;;2.38;;
30380;SDS011;17169;50.966;11.038;2022-11-02T11:37:46;6.13;;;1.55;;
30380;SDS011;17169;50.966;11.038;2022-11-02T11:40:49;5.85;;;1.45;;
30380;SDS011;17169;50.966;11.038;2022-11-02T11:43:54;11.27;;;2.33;;
30380;SDS011;17169;50.966;11.038;2022-11-02T11:46:59;7.20;;;1.40;;
30380;SDS011;17169;50.966;11.038;2022-11-02T11:50:02;11.85;;;2.00;;
30380;SDS011;17169;50.966;11.038;2022-11-02T11:53:09;4.85;;;1.10;;
30380;SDS011;17169;50.966;11.038;2022-11-02T11:56:23;8.30;;;1.75;;
30380;SDS011;17169;50.966;11.038;2022-11-02T11:59:28;5.53;;;1.70;;
30380;SDS011;17169;50.966;11.038;2022-11-02T12:02:45;8.82;;;1.65;;
30380;SDS011;17169;50.966;11.038;2022-11-02T12:06:05;6.10;;;1.38;;
30380;SDS011;17169;50.966;11.038;2022-11-02T12:09:18;7.72;;;1.40;;
30380;SDS011;17169;50.966;11.038;2022-11-02T12:12:30;8.07;;;1.50;;
30380;SDS011;17169;50.966;11.038;2022-11-02T12:15:46;9.38;;;1.60;;
30380;SDS011;17169;50.966;11.038;2022-11-02T12:19:02;11.55;;;1.83;;
30380;SDS011;17169;50.966;11.038;2022-11-02T12:22:20;7.43;;;1.40;;
30380;SDS011;17169;50.966;11.038;2022-11-02T12:25:32;8.02;;;1.33;;
30380;SDS011;17169;50.966;11.038;2022-11-02T12:28:43;4.30;;;1.17;;
30380;SDS011;17169;50.966;11.038;2022-11-02T12:31:57;8.52;;;1.50;;
30380;SDS011;17169;50.966;11.038;2022-11-02T12:35:11;11.13;;;1.55;;
30380;SDS011;17169;50.966;11.038;2022-11-02T12:38:38;7.07;;;1.35;;
30380;SDS011;17169;50.966;11.038;2022-11-02T12:41:53;10.02;;;1.55;;
30380;SDS011;17169;50.966;11.038;2022-11-02T12:45:09;7.55;;;2.17;;
30380;SDS011;17169;50.966;11.038;2022-11-02T12:48:23;7.93;;;1.23;;
30380;SDS011;17169;50.966;11.038;2022-11-02T12:51:36;9.88;;;1.60;;
30380;SDS011;17169;50.966;11.038;2022-11-02T12:54:44;4.93;;;1.30;;
30380;SDS011;17169;50.966;11.038;2022-11-02T12:57:58;9.43;;;1.95;;
30380;SDS011;17169;50.966;11.038;2022-11-02T13:01:05;11.70;;;1.83;;
30380;SDS011;17169;50.966;11.038;2022-11-02T13:04:13;8.70;;;1.42;;
30380;SDS011;17169;50.966;11.038;2022-11-02T13:07:24;5.82;;;1.23;;
30380;SDS011;17169;50.966;11.038;2022-11-02T13:10:33;5.55;;;1.48;;
30380;SDS011;17169;50.966;11.038;2022-11-02T13:13:42;9.93;;;1.50;;
30380;SDS011;17169;50.966;11.038;2022-11-02T13:16:47;11.15;;;1.65;;
30380;SDS011;17169;50.966;11.038;2022-11-02T13:19:53;5.10;;;1.42;;
30380;SDS011;17169;50.966;11.038;2022-11-02T13:23:01;11.60;;;1.73;;
30380;SDS011;17169;50.966;11.038;2022-11-02T13:26:09;7.38;;;1.30;;
30380;SDS011;17169;50.966;11.038;2022-11-02T13:29:16;8.27;;;1.42;;
30380;SDS011;17169;50.966;11.038;2022-11-02T13:32:25;7.22;;;1.63;;
30380;SDS011;17169;50.966;11.038;2022-11-02T13:35:32;6.00;;;1.35;;
30380;SDS011;17169;50.966;11.038;2022-11-02T13:38:38;5.25;;;1.30;;
30380;SDS011;17169;50.966;11.038;2022-11-02T13:41:50;4.85;;;1.20;;
30380;SDS011;17169;50.966;11.038;2022-11-02T13:48:46;11.45;;;1.50;;
30380;SDS011;17169;50.966;11.038;2022-11-02T13:51:53;8.30;;;1.58;;
30380;SDS011;17169;50.966;11.038;2022-11-02T13:55:02;10.18;;;1.75;;
30380;SDS011;17169;50.966;11.038;2022-11-02T13:58:12;20.52;;;7.90;;
30380;SDS011;17169;50.966;11.038;2022-11-02T14:01:23;14.23;;;2.30;;
30380;SDS011;17169;50.966;11.038;2022-11-02T14:04:26;12.52;;;2.00;;
30380;SDS011;17169;50.966;11.038;2022-11-02T14:07:38;10.30;;;1.73;;
30380;SDS011;17169;50.966;11.038;2022-11-02T14:10:43;5.53;;;1.40;;
30380;SDS011;17169;50.966;11.038;2022-11-02T14:14:05;8.93;;;3.05;;
30380;SDS011;17169;50.966;11.038;2022-11-02T14:17:16;6.80;;;2.00;;
30380;SDS011;17169;50.966;11.038;2022-11-02T14:20:31;11.25;;;1.75;;
30380;SDS011;17169;50.966;11.038;2022-11-02T14:23:35;12.20;;;1.67;;
30380;SDS011;17169;50.966;11.038;2022-11-02T14:26:53;6.13;;;1.50;;
30380;SDS011;17169;50.966;11.038;2022-11-02T14:29:58;13.60;;;1.50;;
30380;SDS011;17169;50.966;11.038;2022-11-02T14:33:01;10.30;;;1.45;;
30380;SDS011;17169;50.966;11.038;2022-11-02T14:36:19;8.10;;;1.40;;
30380;SDS011;17169;50.966;11.038;2022-11-02T14:39:35;5.65;;;1.55;;
30380;SDS011;17169;50.966;11.038;2022-11-02T14:46:38;8.35;;;2.30;;
30380;SDS011;17169;50.966;11.038;2022-11-02T14:50:04;6.78;;;1.73;;
30380;SDS011;17169;50.966;11.038;2022-11-02T14:53:16;10.02;;;1.83;;
30380;SDS011;17169;50.966;11.038;2022-11-02T14:56:24;7.53;;;1.50;;
30380;SDS011;17169;50.966;11.038;2022-11-02T14:59:49;7.88;;;1.75;;
30380;SDS011;17169;50.966;11.038;2022-11-02T15:02:55;9.93;;;1.77;;
30380;SDS011;17169;50.966;11.038;2022-11-02T15:05:58;8.38;;;1.40;;
30380;SDS011;17169;50.966;11.038;2022-11-02T15:09:03;8.35;;;2.25;;
30380;SDS011;17169;50.966;11.038;2022-11-02T15:12:19;7.65;;;1.50;;
30380;SDS011;17169;50.966;11.038;2022-11-02T15:15:32;8.48;;;1.90;;
30380;SDS011;17169;50.966;11.038;2022-11-02T15:18:36;14.30;;;2.33;;
30380;SDS011;17169;50.966;11.038;2022-11-02T15:21:40;12.75;;;3.88;;
30380;SDS011;17169;50.966;11.038;2022-11-02T15:24:42;9.90;;;2.38;;
30380;SDS011;17169;50.966;11.038;2022-11-02T15:27:47;11.55;;;3.03;;
30380;SDS011;17169;50.966;11.038;2022-11-02T15:30:54;10.18;;;2.30;;
30380;SDS011;17169;50.966;11.038;2022-11-02T15:34:00;13.82;;;3.20;;
30380;SDS011;17169;50.966;11.038;2022-11-02T15:37:05;8.77;;;2.70;;
30380;SDS011;17169;50.966;11.038;2022-11-02T15:40:10;11.60;;;2.67;;
30380;SDS011;17169;50.966;11.038;2022-11-02T15:47:02;10.15;;;3.35;;
30380;SDS011;17169;50.966;11.038;2022-11-02T15:50:18;8.73;;;2.80;;
30380;SDS011;17169;50.966;11.038;2022-11-02T15:53:43;12.27;;;2.80;;
30380;SDS011;17169;50.966;11.038;2022-11-02T15:57:09;9.10;;;2.67;;
30380;SDS011;17169;50.966;11.038;2022-11-02T16:00:20;9.77;;;2.28;;
30380;SDS011;17169;50.966;11.038;2022-11-02T16:03:30;11.48;;;3.25;;
30380;SDS011;17169;50.966;11.038;2022-11-02T16:06:35;13.63;;;4.83;;
30380;SDS011;17169;50.966;11.038;2022-11-02T16:09:39;16.95;;;4.97;;
30380;SDS011;17169;50.966;11.038;2022-11-02T16:12:42;11.15;;;3.00;;
30380;SDS011;17169;50.966;11.038;2022-11-02T16:15:44;10.73;;;3.38;;
30380;SDS011;17169;50.966;11.038;2022-11-02T16:18:51;7.82;;;2.72;;
30380;SDS011;17169;50.966;11.038;2022-11-02T16:21:54;6.30;;;2.30;;
30380;SDS011;17169;50.966;11.038;2022-11-02T16:24:57;9.43;;;3.20;;
30380;SDS011;17169;50.966;11.038;2022-11-02T16:28:00;7.90;;;2.25;;
30380;SDS011;17169;50.966;11.038;2022-11-02T16:31:14;13.43;;;2.50;;
30380;SDS011;17169;50.966;11.038;2022-11-02T16:34:20;6.78;;;2.28;;
30380;SDS011;17169;50.966;11.038;2022-11-02T16:37:24;10.32;;;2.25;;
30380;SDS011;17169;50.966;11.038;2022-11-02T16:40:26;7.25;;;1.70;;
30380;SDS011;17169;50.966;11.038;2022-11-02T16:43:29;9.38;;;2.67;;
30380;SDS011;17169;50.966;11.038;2022-11-02T16:46:38;5.57;;;2.28;;
30380;SDS011;17169;50.966;11.038;2022-11-02T16:49:56;8.65;;;2.78;;
30380;SDS011;17169;50.966;11.038;2022-11-02T16:53:00;11.95;;;3.30;;
30380;SDS011;17169;50.966;11.038;2022-11-02T16:56:12;8.48;;;3.20;;
30380;SDS011;17169;50.966;11.038;2022-11-02T16:59:27;10.77;;;3.00;;
30380;SDS011;17169;50.966;11.038;2022-11-02T17:02:30;15.57;;;3.65;;
30380;SDS011;17169;50.966;11.038;2022-11-02T17:05:39;15.18;;;3.42;;
30380;SDS011;17169;50.966;11.038;2022-11-02T17:08:43;10.45;;;2.90;;
30380;SDS011;17169;50.966;11.038;2022-11-02T17:11:52;8.68;;;2.78;;
30380;SDS011;17169;50.966;11.038;2022-11-02T17:14:56;16.05;;;2.92;;
30380;SDS011;17169;50.966;11.038;2022-11-02T17:18:13;10.52;;;3.10;;
30380;SDS011;17169;50.966;11.038;2022-11-02T17:21:27;13.20;;;4.55;;
30380;SDS011;17169;50.966;11.038;2022-11-02T17:24:30;16.15;;;4.70;;
30380;SDS011;17169;50.966;11.038;2022-11-02T17:30:44;11.27;;;2.33;;
30380;SDS011;17169;50.966;11.038;2022-11-02T17:33:48;7.22;;;2.65;;
30380;SDS011;17169;50.966;11.038;2022-11-02T17:36:53;13.50;;;4.93;;
30380;SDS011;17169;50.966;11.038;2022-11-02T17:39:59;14.52;;;6.13;;
30380;SDS011;17169;50.966;11.038;2022-11-02T17:43:01;12.00;;;4.35;;
30380;SDS011;17169;50.966;11.038;2022-11-02T17:46:04;10.77;;;3.20;;
30380;SDS011;17169;50.966;11.038;2022-11-02T17:49:08;12.07;;;3.38;;
30380;SDS011;17169;50.966;11.038;2022-11-02T17:52:12;10.70;;;3.00;;
30380;SDS011;17169;50.966;11.038;2022-11-02T17:55:17;9.35;;;2.78;;
30380;SDS011;17169;50.966;11.038;2022-11-02T17:58:21;8.77;;;2.97;;
30380;SDS011;17169;50.966;11.038;2022-11-02T18:01:23;9.68;;;2.60;;
30380;SDS011;17169;50.966;11.038;2022-11-02T18:04:26;14.00;;;4.80;;
30380;SDS011;17169;50.966;11.038;2022-11-02T18:07:29;22.25;;;5.32;;
30380;SDS011;17169;50.966;11.038;2022-11-02T18:10:33;19.50;;;5.97;;
30380;SDS011;17169;50.966;11.038;2022-11-02T18:13:37;10.50;;;5.22;;
30380;SDS011;17169;50.966;11.038;2022-11-02T18:16:40;11.10;;;4.13;;
30380;SDS011;17169;50.966;11.038;2022-11-02T18:19:42;11.95;;;4.18;;
30380;SDS011;17169;50.966;11.038;2022-11-02T18:22:46;11.27;;;4.82;;
30380;SDS011;17169;50.966;11.038;2022-11-02T18:25:48;15.05;;;5.50;;
30380;SDS011;17169;50.966;11.038;2022-11-02T18:28:50;7.20;;;3.20;;
30380;SDS011;17169;50.966;11.038;2022-11-02T18:31:53;13.98;;;3.10;;
30380;SDS011;17169;50.966;11.038;2022-11-02T18:34:55;7.22;;;3.47;;